KISP/ISP METAR and TAF weather

Enter ICAO airport designator
Station Type Date Time Source
KISP METAR 2019/08/24 17:56 UTC NOAA

KISP 241756Z VRB05KT 10SM FEW060 23/09 A3016 RMK AO2 SLP214 T02330094 10239 20194 53001


Station Type Date Time Source
KISP Decoded METAR 2019/08/24 17:56 UTC NOAA

Station name not available
Aug 24, 2019 - 01:56 PM EDT / 2019.08.24 1756 UTC
Wind: Variable at 6 MPH (5 KT):0
Visibility: 10 mile(s):0
Sky conditions: mostly clear
Temperature: 73.9 F (23.3 C)
Dew Point: 48.9 F (9.4 C)
Relative Humidity: 41%
Pressure (altimeter): 30.16 in. Hg (1021 hPa)
Pressure tendency: 0.00 inches (0.1 hPa) higher than three hours ago
ob: KISP 241756Z VRB05KT 10SM FEW060 23/09 A3016 RMK AO2 SLP214 T02330094 10239 20194 53001
cycle: 18

Station Type Date Time Source
KISP TAF 2019/08/24 18:22 UTC NOAA

TAF KISP 241720Z 2418/2518 04009G15KT P6SM FEW060
FM242000 07009G15KT P6SM FEW060
FM242200 08007KT P6SM SCT060
FM250600 05008KT P6SM SCT060
FM251100 04011G17KT P6SM BKN060

Example: see airport list